createdAt,value
2023-05-25T00:01:07.235Z,22.30
2023-05-25T00:03:34.593Z,27.57
2023-05-25T00:06:02.206Z,25.80
2023-05-25T00:08:29.995Z,19.63
2023-05-25T00:10:56.986Z,26.53
2023-05-25T00:13:24.576Z,22.73
2023-05-25T00:15:51.387Z,25.50
2023-05-25T00:18:18.661Z,31.70
2023-05-25T00:20:47.960Z,21.87
2023-05-25T00:23:16.906Z,29.20
2023-05-25T00:25:44.470Z,23.90
2023-05-25T00:28:11.895Z,25.60
2023-05-25T00:30:39.034Z,25.43
2023-05-25T00:33:06.483Z,25.50
2023-05-25T00:35:33.245Z,26.90
2023-05-25T00:37:59.962Z,24.93
2023-05-25T00:40:26.794Z,23.00
2023-05-25T00:42:53.846Z,21.83
2023-05-25T00:45:20.964Z,29.53
2023-05-25T00:47:51.599Z,29.77
2023-05-25T00:50:19.850Z,24.60
2023-05-25T00:52:50.141Z,21.33
2023-05-25T00:55:19.795Z,33.27
2023-05-25T00:57:52.500Z,26.83
2023-05-25T01:00:23.411Z,23.57
2023-05-25T01:02:52.870Z,22.60
2023-05-25T01:05:22.413Z,25.67
2023-05-25T01:07:57.873Z,31.57
2023-05-25T01:10:31.997Z,28.87
2023-05-25T01:13:00.674Z,29.13
2023-05-25T01:15:32.832Z,29.00
2023-05-25T01:17:59.981Z,27.20
2023-05-25T01:20:30.040Z,32.47
2023-05-25T01:23:04.536Z,26.77
2023-05-25T01:25:40.724Z,23.97
2023-05-25T01:28:08.045Z,23.83
2023-05-25T01:30:37.446Z,25.77
2023-05-25T01:33:05.750Z,30.90
2023-05-25T01:35:33.728Z,25.43
2023-05-25T01:38:01.230Z,28.60
2023-05-25T01:40:28.204Z,26.27
2023-05-25T01:42:54.883Z,26.57
2023-05-25T01:45:21.548Z,24.17
2023-05-25T01:47:52.648Z,35.40
2023-05-25T01:50:37.092Z,26.93
2023-05-25T01:53:05.050Z,26.20
2023-05-25T01:55:41.778Z,27.27
2023-05-25T01:58:08.906Z,23.10
2023-05-25T02:00:36.473Z,32.17
2023-05-25T02:03:04.611Z,31.00
2023-05-25T02:05:31.933Z,27.40
2023-05-25T02:07:59.146Z,27.40
2023-05-25T02:10:26.282Z,29.63
2023-05-25T02:12:53.277Z,31.00
2023-05-25T02:15:21.251Z,36.53
2023-05-25T02:17:48.492Z,28.17
2023-05-25T02:20:15.351Z,25.50
2023-05-25T02:22:42.981Z,30.90
2023-05-25T02:25:11.281Z,28.03
2023-05-25T02:27:38.134Z,28.83
2023-05-25T02:30:06.903Z,22.17
2023-05-25T02:32:34.009Z,24.30
2023-05-25T02:35:01.861Z,27.90
2023-05-25T02:37:28.540Z,21.07
2023-05-25T02:39:57.601Z,27.20
2023-05-25T02:42:24.866Z,24.33
2023-05-25T02:44:51.581Z,27.10
2023-05-25T02:47:18.954Z,21.67
2023-05-25T02:49:46.006Z,27.27
2023-05-25T02:52:12.936Z,33.93
2023-05-25T02:54:40.326Z,32.23
2023-05-25T02:57:08.797Z,21.23
2023-05-25T02:59:36.347Z,29.97
2023-05-25T03:02:03.843Z,23.47
2023-05-25T03:04:34.345Z,24.73
2023-05-25T03:07:01.768Z,35.43
2023-05-25T03:09:28.925Z,24.17
2023-05-25T03:11:55.844Z,22.40
2023-05-25T03:14:22.513Z,31.97
2023-05-25T03:16:55.509Z,29.23
2023-05-25T03:19:23.526Z,31.40
2023-05-25T03:21:50.458Z,26.80
2023-05-25T03:24:18.873Z,25.83
2023-05-25T03:26:46.508Z,31.10
2023-05-25T03:29:13.979Z,23.80
2023-05-25T03:31:41.017Z,20.20
2023-05-25T03:34:07.991Z,22.37
2023-05-25T03:36:38.911Z,24.50
2023-05-25T03:39:06.406Z,17.33
2023-05-25T03:41:33.148Z,23.67
2023-05-25T03:43:59.850Z,22.23
2023-05-25T03:46:26.823Z,22.30
2023-05-25T03:48:57.916Z,20.27
2023-05-25T03:51:24.582Z,18.27
2023-05-25T03:53:51.355Z,18.90
2023-05-25T03:56:18.871Z,23.83
2023-05-25T03:58:45.878Z,16.33
2023-05-25T04:01:15.010Z,22.10
2023-05-25T04:03:41.989Z,17.87
2023-05-25T04:06:09.378Z,20.97
2023-05-25T04:08:36.432Z,18.13
2023-05-25T04:11:05.297Z,23.10
2023-05-25T04:13:35.809Z,20.33
2023-05-25T04:16:02.850Z,19.73
2023-05-25T04:18:32.544Z,22.77
2023-05-25T04:20:59.978Z,24.20
2023-05-25T04:23:28.473Z,20.33
2023-05-25T04:25:55.361Z,18.50
2023-05-25T04:28:23.053Z,17.93
2023-05-25T04:30:59.866Z,19.67
2023-05-25T04:33:40.154Z,19.70
2023-05-25T04:36:38.729Z,24.50
2023-05-25T04:39:07.435Z,16.73
2023-05-25T04:41:37.816Z,17.13
2023-05-25T04:44:10.038Z,23.03
2023-05-25T04:46:47.577Z,22.83
2023-05-25T04:49:22.322Z,18.80
2023-05-25T04:51:49.121Z,22.47
2023-05-25T04:54:15.907Z,21.83
2023-05-25T04:56:43.120Z,22.43
2023-05-25T04:59:10.136Z,19.60
2023-05-25T05:01:41.160Z,17.20
2023-05-25T05:04:10.326Z,21.33
2023-05-25T05:06:38.672Z,17.33
2023-05-25T05:09:06.371Z,30.03
2023-05-25T05:11:33.314Z,16.80
2023-05-25T05:14:00.173Z,19.60
2023-05-25T05:16:33.660Z,18.77
2023-05-25T05:19:01.601Z,22.70
2023-05-25T05:21:28.310Z,21.80
2023-05-25T05:23:56.163Z,15.77
2023-05-25T05:26:23.910Z,26.03
2023-05-25T05:28:52.524Z,18.93
2023-05-25T05:31:19.920Z,19.80
2023-05-25T05:33:47.275Z,22.43
2023-05-25T05:36:15.569Z,20.47
2023-05-25T05:38:42.809Z,19.90
2023-05-25T05:41:13.818Z,16.93
2023-05-25T05:43:42.858Z,20.90
2023-05-25T05:46:12.503Z,19.83
2023-05-25T05:48:40.591Z,22.03
2023-05-25T05:51:07.317Z,20.30
2023-05-25T05:53:35.500Z,23.10
2023-05-25T05:56:03.560Z,20.30
2023-05-25T05:58:32.266Z,17.93
2023-05-25T06:01:00.097Z,18.60
2023-05-25T06:03:29.990Z,18.83
2023-05-25T06:05:56.783Z,25.53
2023-05-25T06:08:23.729Z,16.67
2023-05-25T06:10:50.959Z,19.53
2023-05-25T06:13:17.620Z,21.00
2023-05-25T06:15:45.241Z,21.07
2023-05-25T06:18:17.250Z,21.17
2023-05-25T06:20:44.248Z,21.60
2023-05-25T06:23:13.942Z,23.23
2023-05-25T06:25:41.090Z,17.47
2023-05-25T06:28:08.062Z,16.03
2023-05-25T06:30:34.828Z,16.50
2023-05-25T06:33:03.483Z,19.23
2023-05-25T06:35:30.893Z,23.63
2023-05-25T06:37:57.856Z,21.00
2023-05-25T06:40:24.703Z,22.37
2023-05-25T06:42:51.373Z,20.20
2023-05-25T06:45:53.720Z,24.30
2023-05-25T06:48:21.079Z,22.70
2023-05-25T06:50:47.824Z,22.40
2023-05-25T06:53:14.641Z,23.70
2023-05-25T06:55:41.655Z,24.87
2023-05-25T06:58:10.513Z,22.43
2023-05-25T07:00:37.252Z,22.20
2023-05-25T07:03:04.038Z,19.37
2023-05-25T07:05:30.781Z,27.50
2023-05-25T07:07:57.429Z,25.47
2023-05-25T07:10:24.221Z,20.73
2023-05-25T07:12:50.896Z,22.17
2023-05-25T07:15:17.753Z,24.10
2023-05-25T07:17:45.126Z,22.70
2023-05-25T07:20:13.536Z,23.90
2023-05-25T07:22:40.257Z,25.40
2023-05-25T07:25:07.377Z,23.47
2023-05-25T07:27:36.372Z,21.00
2023-05-25T07:30:03.317Z,21.57
2023-05-25T07:32:30.020Z,21.40
2023-05-25T07:34:56.689Z,18.63
2023-05-25T07:37:23.294Z,22.93
2023-05-25T07:39:50.537Z,20.60
2023-05-25T07:42:21.057Z,23.63
2023-05-25T07:44:49.082Z,21.27
2023-05-25T07:47:18.283Z,22.07
2023-05-25T07:49:44.933Z,27.70
2023-05-25T07:52:11.930Z,18.00
2023-05-25T07:54:40.340Z,25.37
2023-05-25T07:57:07.941Z,23.83
2023-05-25T07:59:34.958Z,21.03
2023-05-25T08:02:02.010Z,19.33
2023-05-25T08:04:31.337Z,24.83
2023-05-25T08:06:58.103Z,22.07
2023-05-25T08:09:25.479Z,25.07
2023-05-25T08:11:54.504Z,20.30
2023-05-25T08:14:27.248Z,23.27
2023-05-25T08:16:54.761Z,18.77
2023-05-25T08:19:22.187Z,18.77
2023-05-25T08:21:49.524Z,19.93
2023-05-25T08:24:16.245Z,21.27
2023-05-25T08:26:54.353Z,19.80
2023-05-25T08:29:22.190Z,23.80
2023-05-25T08:31:49.868Z,23.83
2023-05-25T08:34:17.007Z,23.33
2023-05-25T08:36:44.925Z,23.43
2023-05-25T08:39:11.959Z,27.90
2023-05-25T08:41:43.435Z,24.87
2023-05-25T08:44:10.928Z,24.37
2023-05-25T08:46:37.924Z,24.10
2023-05-25T08:49:15.696Z,20.33
2023-05-25T08:51:43.614Z,23.90
2023-05-25T08:54:13.002Z,23.60
2023-05-25T08:56:52.108Z,21.97
2023-05-25T08:59:56.365Z,23.57
2023-05-25T09:02:42.245Z,23.43
2023-05-25T09:05:09.477Z,20.97
2023-05-25T09:07:36.527Z,23.10
2023-05-25T09:10:05.826Z,23.83
2023-05-25T09:12:32.802Z,22.20
2023-05-25T09:15:00.039Z,23.77
2023-05-25T09:17:27.279Z,20.10
2023-05-25T09:19:54.355Z,26.50
2023-05-25T09:22:21.169Z,26.10
2023-05-25T09:24:47.821Z,28.13
2023-05-25T09:27:19.332Z,27.43
2023-05-25T09:29:50.267Z,23.63
2023-05-25T09:32:18.010Z,28.67
2023-05-25T09:34:45.610Z,29.70
2023-05-25T09:37:14.368Z,26.53
2023-05-25T09:39:42.243Z,28.07
2023-05-25T09:42:11.602Z,24.87
2023-05-25T09:44:39.455Z,21.27
2023-05-25T09:47:07.202Z,23.33
2023-05-25T09:49:33.993Z,17.83
2023-05-25T09:52:01.177Z,20.13
2023-05-25T09:54:28.153Z,20.20
2023-05-25T09:56:55.128Z,15.83
2023-05-25T09:59:24.939Z,17.83
2023-05-25T10:01:53.820Z,16.47
2023-05-25T10:04:21.108Z,17.30
2023-05-25T10:06:50.788Z,17.67
2023-05-25T10:09:20.972Z,17.87
2023-05-25T10:11:48.833Z,14.27
2023-05-25T10:14:22.592Z,14.13
2023-05-25T10:16:51.850Z,13.83
2023-05-25T10:19:29.208Z,16.00
2023-05-25T10:22:01.928Z,15.93
2023-05-25T10:24:39.252Z,15.37
2023-05-25T10:27:22.433Z,16.77
2023-05-25T10:29:56.429Z,16.23
2023-05-25T10:32:23.377Z,18.17
2023-05-25T10:34:52.369Z,18.53
2023-05-25T10:37:19.237Z,19.83
2023-05-25T10:39:46.295Z,18.20
2023-05-25T10:42:13.446Z,16.37
2023-05-25T10:44:43.636Z,16.13
2023-05-25T10:47:10.877Z,20.37
2023-05-25T10:49:58.128Z,15.87
2023-05-25T10:52:29.170Z,18.17
2023-05-25T10:54:57.409Z,19.30
2023-05-25T10:57:25.469Z,15.97
2023-05-25T10:59:55.523Z,20.70
2023-05-25T11:02:25.196Z,23.57
2023-05-25T11:05:26.965Z,19.60
2023-05-25T11:07:54.791Z,20.67
2023-05-25T11:10:43.486Z,28.90
2023-05-25T11:13:32.684Z,21.50
2023-05-25T11:16:17.567Z,16.57
2023-05-25T11:18:58.417Z,15.97
2023-05-25T11:21:28.641Z,19.23
2023-05-25T11:24:15.154Z,20.60
2023-05-25T11:27:11.354Z,16.73
2023-05-25T11:29:38.432Z,14.70
2023-05-25T11:32:06.210Z,19.93
2023-05-25T11:34:33.474Z,16.23
2023-05-25T11:37:01.830Z,14.70
2023-05-25T11:39:28.912Z,14.93
2023-05-25T11:41:57.280Z,17.33
2023-05-25T11:44:31.678Z,11.37
2023-05-25T11:47:02.040Z,17.60
2023-05-25T11:49:28.894Z,15.50
2023-05-25T11:51:57.252Z,18.23
2023-05-25T11:54:28.782Z,15.90
2023-05-25T11:56:59.094Z,15.17
2023-05-25T11:59:28.756Z,15.03
2023-05-25T12:02:00.591Z,13.77
2023-05-25T12:04:27.683Z,12.33
2023-05-25T12:07:02.507Z,15.13
2023-05-25T12:09:31.683Z,14.13
2023-05-25T12:11:58.675Z,13.10
2023-05-25T12:14:25.812Z,13.70
2023-05-25T12:16:52.977Z,16.47
2023-05-25T12:19:20.118Z,14.10
2023-05-25T12:21:51.312Z,13.80
2023-05-25T12:24:18.634Z,15.10
2023-05-25T12:26:50.251Z,13.03
2023-05-25T12:29:17.308Z,12.13
2023-05-25T12:31:43.949Z,19.57
2023-05-25T12:34:18.824Z,11.93
2023-05-25T12:36:50.808Z,10.63
2023-05-25T12:39:31.872Z,12.00
2023-05-25T12:41:59.906Z,11.80
2023-05-25T12:44:37.012Z,13.70
2023-05-25T12:47:28.724Z,11.20
2023-05-25T12:50:15.331Z,12.17
2023-05-25T12:52:46.874Z,17.40
2023-05-25T12:55:28.684Z,12.17
2023-05-25T12:57:57.970Z,15.60
2023-05-25T13:00:26.967Z,13.37
2023-05-25T13:02:54.657Z,11.10
2023-05-25T13:05:26.355Z,9.83
2023-05-25T13:07:55.041Z,15.33
2023-05-25T13:10:22.494Z,15.07
2023-05-25T13:12:50.171Z,17.70
2023-05-25T13:15:21.778Z,19.80
2023-05-25T13:17:50.953Z,21.00
2023-05-25T13:20:19.543Z,12.87
2023-05-25T13:22:48.586Z,15.53
2023-05-25T13:25:15.467Z,18.03
2023-05-25T13:27:47.503Z,21.50
2023-05-25T13:30:14.808Z,17.70
2023-05-25T13:32:44.733Z,17.20
2023-05-25T13:35:18.528Z,18.00
2023-05-25T13:37:48.314Z,17.67
2023-05-25T13:40:15.109Z,23.67
2023-05-25T13:42:41.913Z,17.73
2023-05-25T13:45:11.102Z,16.13
2023-05-25T13:47:37.900Z,15.23
2023-05-25T13:50:05.121Z,18.57
2023-05-25T13:52:31.816Z,15.73
2023-05-25T13:54:58.606Z,13.57
2023-05-25T13:57:25.263Z,15.77
2023-05-25T13:59:54.839Z,14.53
2023-05-25T14:02:21.513Z,17.60
2023-05-25T14:04:48.204Z,12.10
2023-05-25T14:07:14.867Z,15.23
2023-05-25T14:09:41.604Z,14.87
2023-05-25T14:12:08.401Z,13.40
2023-05-25T14:14:35.061Z,16.80
2023-05-25T14:17:02.026Z,22.33
2023-05-25T14:19:29.005Z,17.40
2023-05-25T14:22:11.815Z,12.90
2023-05-25T14:24:41.001Z,16.13
2023-05-25T14:27:07.904Z,20.57
2023-05-25T14:29:34.885Z,16.97
2023-05-25T14:32:01.832Z,15.47
2023-05-25T14:34:28.823Z,14.90
2023-05-25T14:36:55.914Z,13.50
2023-05-25T14:39:23.664Z,21.07
2023-05-25T14:41:50.367Z,19.30
2023-05-25T14:44:17.045Z,20.13
2023-05-25T14:46:43.786Z,17.43
2023-05-25T14:49:10.520Z,21.67
2023-05-25T14:51:37.994Z,18.03
2023-05-25T14:54:06.402Z,15.50
2023-05-25T14:56:33.205Z,17.93
2023-05-25T14:58:59.985Z,29.67
2023-05-25T15:01:29.234Z,19.83
2023-05-25T15:03:56.401Z,19.27
2023-05-25T15:06:23.273Z,19.60
2023-05-25T15:08:50.897Z,19.10
2023-05-25T15:11:18.245Z,20.77
2023-05-25T15:13:45.348Z,20.73
2023-05-25T15:16:13.199Z,19.27
2023-05-25T15:18:39.996Z,17.60
2023-05-25T15:21:06.758Z,16.17
2023-05-25T15:23:34.266Z,22.23
2023-05-25T15:26:08.253Z,18.23
2023-05-25T15:28:35.131Z,16.67
2023-05-25T15:31:03.343Z,21.27
2023-05-25T15:33:48.612Z,19.63
2023-05-25T15:36:18.639Z,30.87
2023-05-25T15:38:49.113Z,17.33
2023-05-25T15:41:16.758Z,19.20
2023-05-25T15:43:51.481Z,20.20
2023-05-25T15:46:19.560Z,21.63
2023-05-25T15:48:46.304Z,22.93
2023-05-25T15:51:15.252Z,25.67
2023-05-25T15:53:42.420Z,18.53
2023-05-25T15:56:09.333Z,20.97
2023-05-25T15:58:35.992Z,22.67
2023-05-25T16:01:02.858Z,18.00
2023-05-25T16:03:29.980Z,21.27
2023-05-25T16:05:56.838Z,17.30
2023-05-25T16:08:23.911Z,20.60
2023-05-25T16:10:50.629Z,19.10
2023-05-25T16:13:17.411Z,26.23
2023-05-25T16:15:44.181Z,21.93
2023-05-25T16:18:11.114Z,26.73
2023-05-25T16:20:37.939Z,23.43
2023-05-25T16:23:04.670Z,20.57
2023-05-25T16:25:31.285Z,21.47
2023-05-25T16:27:57.933Z,17.57
2023-05-25T16:30:24.958Z,22.00
2023-05-25T16:32:51.796Z,26.67
2023-05-25T16:35:19.942Z,19.77
2023-05-25T16:37:46.839Z,21.60
2023-05-25T16:40:14.084Z,26.13
2023-05-25T16:42:41.585Z,23.93
2023-05-25T16:45:09.214Z,22.23
2023-05-25T16:47:36.087Z,18.90
2023-05-25T16:50:02.932Z,18.23
2023-05-25T16:52:29.886Z,16.93
2023-05-25T16:54:59.098Z,17.57
2023-05-25T16:57:25.906Z,20.07
2023-05-25T16:59:53.803Z,23.70
2023-05-25T17:02:20.934Z,20.50
2023-05-25T17:04:48.393Z,16.30
2023-05-25T17:07:15.332Z,26.33
2023-05-25T17:09:42.259Z,24.47
2023-05-25T17:12:09.303Z,25.50
2023-05-25T17:14:36.570Z,25.93
2023-05-25T17:17:03.937Z,19.37
2023-05-25T17:19:39.098Z,22.00
2023-05-25T17:22:31.205Z,17.93
2023-05-25T17:25:00.621Z,22.73
2023-05-25T17:27:40.126Z,19.87
2023-05-25T17:30:12.642Z,24.33
2023-05-25T17:33:19.136Z,25.47
2023-05-25T17:35:51.915Z,20.50
2023-05-25T17:38:18.603Z,23.80
2023-05-25T17:40:51.235Z,28.37
2023-05-25T17:43:44.127Z,26.30
2023-05-25T17:46:11.205Z,20.73
2023-05-25T17:51:20.951Z,29.00
2023-05-25T17:53:51.085Z,24.20
2023-05-25T17:56:22.172Z,24.00
2023-05-25T17:58:52.301Z,21.87
2023-05-25T18:01:22.410Z,20.60
2023-05-25T18:03:54.318Z,23.57
2023-05-25T18:06:38.557Z,21.23
2023-05-25T18:09:05.877Z,19.70
2023-05-25T18:11:42.425Z,26.43
2023-05-25T18:14:18.484Z,30.00
2023-05-25T18:16:54.066Z,20.73
2023-05-25T18:19:20.878Z,20.97
2023-05-25T18:21:47.542Z,32.47
2023-05-25T18:24:20.161Z,28.80
2023-05-25T18:26:46.940Z,28.20
2023-05-25T18:29:13.824Z,25.93
2023-05-25T18:31:52.726Z,24.53
2023-05-25T18:34:19.681Z,26.10
2023-05-25T18:36:46.460Z,28.20
2023-05-25T18:39:13.088Z,28.17
2023-05-25T18:41:39.789Z,26.73
2023-05-25T18:44:07.869Z,19.43
2023-05-25T18:46:35.959Z,28.90
2023-05-25T18:49:05.930Z,21.70
2023-05-25T18:51:33.948Z,29.23
2023-05-25T18:54:00.946Z,22.23
2023-05-25T18:56:28.170Z,27.70
2023-05-25T18:58:58.244Z,27.33
2023-05-25T19:01:45.952Z,30.87
2023-05-25T19:04:12.702Z,30.20
2023-05-25T19:06:46.751Z,36.70
2023-05-25T19:09:13.428Z,25.97
2023-05-25T19:11:40.110Z,29.37
2023-05-25T19:14:12.378Z,30.23
2023-05-25T19:16:39.665Z,30.07
2023-05-25T19:19:07.048Z,31.23
2023-05-25T19:21:34.710Z,26.03
2023-05-25T19:24:01.515Z,21.17
2023-05-25T19:26:28.328Z,24.00
2023-05-25T19:28:55.181Z,29.60
2023-05-25T19:31:23.755Z,27.43
2023-05-25T19:33:51.097Z,24.90
2023-05-25T19:36:18.347Z,23.33
2023-05-25T19:38:47.055Z,23.27
2023-05-25T19:41:14.178Z,24.63
2023-05-25T19:43:42.033Z,32.93
2023-05-25T19:46:09.056Z,29.60
2023-05-25T19:48:37.124Z,32.70
2023-05-25T19:51:05.904Z,35.67
2023-05-25T19:53:34.166Z,31.87
2023-05-25T19:56:03.746Z,30.20
2023-05-25T19:58:31.182Z,25.80
2023-05-25T20:01:00.012Z,32.43
2023-05-25T20:03:28.296Z,31.43
2023-05-25T20:14:11.011Z,23.60
2023-05-25T20:20:36.455Z,29.70
2023-05-25T20:23:57.610Z,34.50
2023-05-25T20:26:25.929Z,33.07
2023-05-25T20:33:57.355Z,33.43
2023-05-25T21:01:41.675Z,22.63
2023-05-25T21:12:31.305Z,28.43
2023-05-25T21:14:57.942Z,27.40
2023-05-25T21:17:29.571Z,24.57
2023-05-25T21:19:59.247Z,41.00
2023-05-25T21:22:31.207Z,32.87
2023-05-25T21:25:00.972Z,34.87
2023-05-25T21:27:55.484Z,23.83
2023-05-25T21:30:24.368Z,28.97
2023-05-25T21:32:51.341Z,24.73
2023-05-25T21:35:18.276Z,21.63
2023-05-25T21:37:45.670Z,22.13
2023-05-25T21:40:12.897Z,27.37
2023-05-25T21:42:39.695Z,39.93
2023-05-25T21:45:06.862Z,22.73
2023-05-25T21:47:33.916Z,21.40
2023-05-25T21:50:02.282Z,30.27
2023-05-25T21:52:29.456Z,22.60
2023-05-25T21:54:56.364Z,29.43
2023-05-25T21:57:23.646Z,26.80
2023-05-25T21:59:50.645Z,25.37
2023-05-25T22:02:19.894Z,25.30
2023-05-25T22:04:46.614Z,28.07
2023-05-25T22:07:13.320Z,26.37
2023-05-25T22:09:39.961Z,28.87
2023-05-25T22:12:06.863Z,37.07
2023-05-25T22:14:34.323Z,30.93
2023-05-25T22:17:01.311Z,27.13
2023-05-25T22:19:28.119Z,32.50
2023-05-25T22:21:54.832Z,30.07
2023-05-25T22:24:21.523Z,34.67
2023-05-25T22:26:48.202Z,27.47
2023-05-25T22:29:14.836Z,25.60
2023-05-25T22:31:41.564Z,32.50
2023-05-25T22:34:08.215Z,34.80
2023-05-25T22:36:34.896Z,33.13
2023-05-25T22:39:01.621Z,30.20
2023-05-25T22:41:28.715Z,29.27
2023-05-25T22:43:56.001Z,33.17
2023-05-25T22:46:23.430Z,31.23
2023-05-25T22:48:50.326Z,31.00
2023-05-25T22:51:17.042Z,25.50
2023-05-25T22:53:44.016Z,36.47
2023-05-25T22:56:10.916Z,33.37
2023-05-25T22:58:38.200Z,31.33
2023-05-25T23:01:05.333Z,28.17
2023-05-25T23:03:32.496Z,36.43
2023-05-25T23:05:59.225Z,36.17
2023-05-25T23:08:26.098Z,24.30
2023-05-25T23:10:53.620Z,31.17
2023-05-25T23:13:24.334Z,25.03
2023-05-25T23:15:51.631Z,37.40
2023-05-25T23:18:18.888Z,32.43
2023-05-25T23:20:46.057Z,30.20
2023-05-25T23:23:13.073Z,44.87
2023-05-25T23:25:41.568Z,31.07
2023-05-25T23:28:08.564Z,34.50
2023-05-25T23:30:35.736Z,28.47
2023-05-25T23:33:02.566Z,36.53
2023-05-25T23:35:29.389Z,40.40
2023-05-25T23:37:58.720Z,32.80
2023-05-25T23:40:25.577Z,28.23
2023-05-25T23:42:52.744Z,34.80
2023-05-25T23:45:19.447Z,34.40
2023-05-25T23:47:46.849Z,32.77
2023-05-25T23:50:14.310Z,42.33
2023-05-25T23:52:41.792Z,41.00
2023-05-25T23:55:08.591Z,27.60
2023-05-25T23:57:36.593Z,38.23
